Fort Bliss, Texas
Current Conditions -  °F | °C
As of 1:58 PM on Wednesday 26 Nov 2014 (Local Time) from KBIF Reporting Station
Clear Clear  
Wind Chill: 64°   Ceiling: Unl
Heat Index: 64°   Visibility: 10mi
Dew Point: 17°   Wind: 5mph
Humidity: 16%   Direction: 320°NW
Pressure: 30.27"   Gusts: NA
Location:  31.8335°N, 106.423°W
Report Text: KBIF 262058Z 32004KT 10SM CLR 18/M08 A3027 RMK AO2A SLP229 T01791084 57027 $
Loading
Personal Weather Stations






























Interactive Weather Map New forecast layout! Learn more

10-Day Weather Forecast

Advertisements
Track Severe Weather on mobile